Tiempo atmosférico en la estación meteorológica de Almadén de la Plata, Sevilla (450 m.)



Fecha
DESCASC
Temp. máxima en grados centígrados (hora)
DESCASC
Temp. mínima en grados centígrados (hora)
DESCASC
Temp. media en grados centígrados
DESCASC
Racha de viento máxima en m/sg (hora)
DESCASC
Velocidad máxima media en intervalos de 10 minutos(hora)
DESCASC
Precipitaciones diarias en mm
DESCASC
Precipitaciones de 00:00 a 06:00 en mm
DESCASC
Precipitaciones de 06:00 a 12:00 en mm
DESCASC
Precipitaciones de 12:00 a 18:00 en mm
DESCASC
Precipitaciones de 18:00 a 24:00 en mm
DESCASC
23-05-2018 24 (17:50) 13.2 (07:10) 18.6 5 (12:20) 2.78 (12:20) 0.4 0 0 0.4 0
22-05-2018 23.8 (18:40) 12.5 (07:00) 18.1 5 (12:40) 2.78 (12:40) 0 0 0 0 0
21-05-2018 21.3 (15:20) 13 (04:20) 17.1 6.67 (16:00) 3.33 (16:00) 4.6 0 0 4.6 0
20-05-2018 20.7 (18:30) 11.6 (00:00) 16.2 5.56 (17:20) 3.06 (17:20) 4 0 0 1.6 2.4
19-05-2018 25 (15:30) 12.7 (07:40) 18.8 5.83 (18:00) 2.5 (16:50) 0.4 0 0 0.4 0
18-05-2018 22.6 (14:20) 12.5 (00:00) 17.6 6.94 (00:20) 3.89 (21:20) 15.6 0 0.8 0 14.8
17-05-2018 26.3 (18:30) 12.1 (00:00) 19.2 7.5 (22:40) 3.89 (21:30) 0 0 0 0 0
16-05-2018 27.5 (18:10) 14.3 (00:00) 20.9 7.5 (16:50) 3.33 (10:20) 0 0 0 0 0
15-05-2018 27.3 (18:30) 11.7 (00:00) 19.5 6.94 (10:50) 3.61 (13:40) 0 0 0 0 0
14-05-2018 25.1 (17:30) 8.8 (00:00) 17 8.61 (16:20) 3.61 (16:20) 0 0 0 0 0
13-05-2018 21.4 (17:50) 6.6 (00:00) 14 8.06 (17:20) 4.17 (11:20) 0 0 0 0 0
12-05-2018 20.1 (16:50) 10.8 (00:00) 15.5 9.17 (20:10) 5 (18:50) 0 0 0 0 0
11-05-2018 22 (18:20) 9.7 (07:30) 15.8 6.67 (17:30) 3.06 (13:00) 0 0 0 0 0
10-05-2018 21.4 (19:00) 11.1 (00:00) 16.3 5.83 (19:40) 3.33 (20:10) 0 0 0 0 0
09-05-2018 18.9 (17:40) 13.3 (00:00) 16.1 5.83 (19:00) 2.5 (19:20) 0.2 0 0 0 0.2
08-05-2018 23.1 (14:20) 13.4 (00:00) 18.3 8.06 (15:20) 4.72 (15:20) 65.4 0 4 51.2 10.2
07-05-2018 24.2 (16:00) 11.5 (00:00) 17.9 7.5 (18:50) 4.17 (18:50) 0.2 0.2 0 0 0
06-05-2018 24.3 (14:10) 12 (00:00) 18.1 7.5 (19:30) 3.89 (11:40) 8.4 0 0 0 8.4
05-05-2018 24.7 (19:20) 10.1 (00:00) 17.4 5 (15:50) 2.5 (15:50) 0 0 0 0 0
04-05-2018 23.2 (18:20) 9.5 (00:00) 16.4 8.89 (20:20) 5.28 (20:00) 0 0 0 0 0
03-05-2018 22.5 (18:40) 8.4 (00:00) 15.4 6.94 (19:50) 3.61 (20:00) 0 0 0 0 0
02-05-2018 18.9 (19:20) 5.7 (00:00) 12.3 6.39 (16:50) 2.78 (15:00) 0 0 0 0 0
01-05-2018 16.5 (16:10) 6.1 (08:00) 11.3 10 (16:30) 4.17 (14:20) 1 0 0 1 0
30-04-2018 15.8 (17:40) 4.5 (00:00) 10.2 6.39 (18:20) 3.06 (16:10) 1.2 0 0 1 0.2
29-04-2018 14.4 (14:00) 5.6 (00:00) 10 10 (19:00) 5.28 (19:10) 0.4 0 0 0.4 0
28-04-2018 16.5 (16:20) 8.1 (00:00) 12.3 7.78 (19:30) 3.61 (14:50) 2.6 0 0 0 2.6

Gráficas

Temp. máximas Temp. mínimas Temp. medias Precipitaciones Rachas de viento máximas Velocidades máximas media en intervalos de 10 minutos

Datos horarios

Fecha y hora oficial Temperatura (ºC) Velocidad del viento (km/h) Dirección del viento Racha (km/h) Dirección de racha Precipitación (mm) Presión (hPa) Tendencia (hPa) Humedad (%)
2018-05-27 23:00:00 16.1 3 Oeste 17 Sudoeste 1 -- -- 90
2018-05-27 22:00:00 17.1 6 Sudoeste 17 Sudoeste 0 -- -- 79
2018-05-27 21:00:00 18 7 Sudoeste 20 Sudoeste 0 -- -- 74
2018-05-27 20:00:00 19.8 9 Sudoeste 25 Sudoeste 0 -- -- 66
2018-05-27 19:00:00 21.1 9 Sur 22 Sur 0 -- -- 63
2018-05-27 18:00:00 21.4 13 Sudoeste 28 Sudoeste 0 -- -- 59
2018-05-27 17:00:00 21.4 8 Oeste 19 Sudoeste 0 -- -- 59
2018-05-27 16:00:00 20.6 7 Sudoeste 20 Sur 0 -- -- 61
2018-05-27 15:00:00 20.5 7 Sudoeste 18 Oeste 0 -- -- 62
2018-05-27 14:00:00 19.3 7 Oeste 17 Sudoeste 0 -- -- 68
2018-05-27 13:00:00 18.3 5 Sudoeste 17 Sur 0 -- -- 72
2018-05-27 12:00:00 16.9 8 Sudoeste 21 Sudoeste 0 -- -- 78
2018-05-27 11:00:00 15.1 8 Sudoeste 17 Sudoeste 0 -- -- 88
2018-05-27 10:00:00 15.5 7 Sudoeste 14 Sudoeste 0 -- -- 86
2018-05-27 09:00:00 14.2 0 Calma 4 Este 0 -- -- 96
2018-05-27 08:00:00 13.4 0 Calma 9 Sudoeste 0 -- -- 95
2018-05-27 07:00:00 13.2 0 Calma 6 Este 0 -- -- 95
2018-05-27 06:00:00 13.6 0 Calma 4 Sudeste 0 -- -- 95
2018-05-27 05:00:00 13.1 0 Calma 5 Sudoeste 0 -- -- 95
2018-05-27 04:00:00 13.6 0 Calma 10 Sudoeste 0 -- -- 89
2018-05-27 03:00:00 13.9 3 Sudoeste 5 Sudoeste 0 -- -- 92
2018-05-27 02:00:00 13.9 0 Calma 11 Sudoeste 0 -- -- 89
2018-05-27 01:00:00 15 4 Sudoeste 11 Sudoeste 0 -- -- 85
2018-05-27 00:00:00 15.8 5 Sudoeste 12 Sudoeste 0 -- -- 81
2018-05-26 23:00:00 15.8 6 Sudoeste 11 Sudoeste 0 -- -- 79
2018-05-26 22:00:00 16.6 6 Sur 10 Sudoeste 0 -- -- 77
2018-05-26 21:00:00 20 4 Sudoeste 12 Sudoeste 0 -- -- 64
2018-05-26 20:00:00 20.2 4 Sudoeste 13 Sudoeste 0 -- -- 63
2018-05-26 19:00:00 20.8 6 Sudoeste 16 Sudoeste 0 -- -- 63
2018-05-26 18:00:00 20.2 7 Sudoeste 19 Sudoeste 0 -- -- 63
2018-05-26 17:00:00 20.2 9 Sur 17 Sur 0 -- -- 61
2018-05-26 16:00:00 20 8 Sudoeste 16 Sur 0 -- -- 62
2018-05-26 15:00:00 19.2 6 Sur 19 Sur 0 -- -- 67
2018-05-26 14:00:00 19.4 6 Sur 18 Sudeste 0 -- -- 65
2018-05-26 13:00:00 17.5 4 Sudoeste 14 Oeste 0 -- -- 77
2018-05-26 12:00:00 16 6 Sudoeste 17 Sudoeste 0.2 -- -- 85
2018-05-26 11:00:00 14.9 7 Sudoeste 14 Sur 0 -- -- 92
2018-05-26 10:00:00 14 6 Sudeste 12 Sudeste 0 -- -- 98
2018-05-26 09:00:00 13.6 4 Sudeste 8 Este 0 -- -- 99
2018-05-26 08:00:00 12.9 3 Sudeste 8 Sudeste 0 -- -- 99
2018-05-26 07:00:00 12.7 0 Calma 4 Sur 0 -- -- 97
2018-05-26 06:00:00 13.1 3 Sur 10 Sur 0.6 -- -- 98
2018-05-26 05:00:00 12.9 0 Calma 3 Este 0 -- -- 98
2018-05-26 04:00:00 12.5 0 Calma 4 Sur 0 -- -- 98
2018-05-26 03:00:00 12.1 0 Calma 5 Sudoeste 0 -- -- 98
2018-05-26 02:00:00 12.5 0 Calma 12 Sudoeste 0 -- -- 95
2018-05-26 01:00:00 12.9 5 Sudoeste 11 Sur 0 -- -- 95
2018-05-26 00:00:00 13.1 5 Sudoeste 12 Sudoeste 0 -- -- 94
2018-05-25 23:00:00 13.4 6 Sur 12 Sur 0 -- -- 91
2018-05-25 22:00:00 13.7 3 Sudoeste 14 Sur 0 -- -- 90
2018-05-25 21:00:00 15.7 5 Sudoeste 14 Sur 0 -- -- 78
2018-05-25 20:00:00 17.1 5 Sudoeste 12 Sur 0 -- -- 79
2018-05-25 19:00:00 17.4 10 Sudoeste 23 Sur 0.8 -- -- 81
2018-05-25 18:00:00 17.2 8 Oeste 29 Sudoeste 0 -- -- 73
2018-05-25 17:00:00 18.1 8 Oeste 24 Sudoeste 0 -- -- 68
2018-05-25 16:00:00 17.9 10 Sudoeste 20 Sur 0 -- -- 71
2018-05-25 15:00:00 18.1 10 Sur 20 Sudeste 0 -- -- 67
2018-05-25 14:00:00 16.7 8 Sur 18 Sudeste 0.6 -- -- 82
2018-05-25 13:00:00 16.3 6 Sudoeste 17 Sudoeste 0 -- -- 77
2018-05-25 12:00:00 16.2 6 Sudoeste 17 Sur 0.2 -- -- 82
2018-05-25 11:00:00 14.8 4 Sur 12 Sudoeste 0 -- -- 88
2018-05-25 10:00:00 14 6 Sur 14 Sur 0 -- -- 96
2018-05-25 09:00:00 12.6 4 Sudeste 10 Este 0.4 -- -- 100
2018-05-25 08:00:00 12.2 3 Sur 9 Este 1 -- -- 100
2018-05-25 07:00:00 12 2 Nordeste 9 Este 0 -- -- 100
2018-05-25 06:00:00 11.4 2 Este 6 Este 0 -- -- 100
2018-05-25 05:00:00 10.8 0 Calma 3 Este 0 -- -- 99
2018-05-25 04:00:00 11.1 0 Calma 7 Sudoeste 0 -- -- 99
2018-05-25 03:00:00 11.2 0 Calma 5 Sudoeste 0 -- -- 98
2018-05-25 02:00:00 11.5 0 Calma 2 Oeste 0 -- -- 97
2018-05-25 01:00:00 12.4 0 Calma 16 Sudoeste 0 -- -- 97
2018-05-25 00:00:00 13.1 7 Sudoeste 17 Sudoeste 0 -- -- 97
2018-05-24 23:00:00 13.6 8 Sudoeste 19 Sudoeste 0 -- -- 97
2018-05-24 22:00:00 13.8 4 Sudoeste 9 Sur 0.2 -- -- 96
2018-05-24 21:00:00 14.1 3 Sur 10 Sudoeste 0 -- -- 94
2018-05-24 20:00:00 14.3 5 Sudoeste 12 Sudoeste 1.6 -- -- 90
2018-05-24 19:00:00 15.4 5 Oeste 17 Oeste 0.2 -- -- 86
2018-05-24 18:00:00 16.8 8 Oeste 22 Oeste 0 -- -- 73
2018-05-24 17:00:00 17.4 8 Sudoeste 16 Sudoeste 0 -- -- 79
2018-05-24 16:00:00 18.8 8 Sudoeste 17 Sudoeste 0 -- -- 70
2018-05-24 15:00:00 19.1 10 Sudoeste 22 Sudoeste 0 -- -- 70
2018-05-24 14:00:00 20 9 Sudoeste 27 Sudoeste 0 -- -- 68
2018-05-24 13:00:00 19.2 9 Sudoeste 24 Oeste 0 -- -- 72
2018-05-24 12:00:00 17.5 10 Sudoeste 23 Sudoeste 0 -- -- 78
2018-05-24 11:00:00 16.9 9 Sudoeste 22 Sur 0 -- -- 84
2018-05-24 10:00:00 17.7 0 Calma 10 Sur 0 -- -- 84
2018-05-24 09:00:00 15.3 4 Sudoeste 7 Sur 0 -- -- 93
2018-05-24 08:00:00 14.3 0 Calma 11 Norte 0.6 -- -- 93
2018-05-24 07:00:00 14.8 6 Oeste 15 Sudoeste 1.2 -- -- 90
2018-05-24 06:00:00 15.8 3 Oeste 10 Sudoeste 0 -- -- 85
2018-05-24 05:00:00 14.9 2 Sudoeste 9 Sur 0 -- -- 84
2018-05-24 04:00:00 15.1 3 Sur 6 Sur 0 -- -- 83
2018-05-24 03:00:00 16.2 0 Calma 10 Sudoeste 0 -- -- 76
2018-05-24 02:00:00 17.7 8 Sudoeste 15 Sur 0 -- -- 69
2018-05-24 01:00:00 18.2 2 Sudeste 7 Este 0 -- -- 68
2018-05-24 00:00:00 18.1 2 Sur 4 Sudeste 0 -- -- 68
2018-05-23 23:00:00 18.5 0 Calma 4 Noroeste 0 -- -- 65
2018-05-23 22:00:00 19.3 0 Calma 8 Noroeste 0 -- -- 63
2018-05-23 21:00:00 21.1 2 Noroeste 7 Noroeste 0 -- -- 59
2018-05-23 20:00:00 22.5 2 Noroeste 8 Noroeste 0 -- -- 57
2018-05-23 19:00:00 23.7 3 Norte 7 Noroeste 0 -- -- 51
2018-05-23 18:00:00 23.8 4 Noroeste 8 Noroeste 0 -- -- 44
2018-05-23 17:00:00 23.8 4 Nordeste 15 Nordeste 0 -- -- 52
2018-05-23 16:00:00 21.5 2 Norte 8 Este 0 -- -- 62
2018-05-23 15:00:00 19 0 Calma 9 Sudoeste 0.2 -- -- 79
2018-05-23 14:00:00 20.1 6 Sur 14 Sudeste 0.2 -- -- 67
2018-05-23 13:00:00 22.1 8 Este 18 Este 0 -- -- 51
2018-05-23 12:00:00 22.7 6 Este 18 Sudeste 0 -- -- 52
2018-05-23 11:00:00 20.8 6 Este 14 Este 0 -- -- 61
2018-05-23 10:00:00 18.7 5 Este 12 Este 0 -- -- 69
2018-05-23 09:00:00 16.7 4 Este 9 Este 0 -- -- 83
2018-05-23 08:00:00 14.1 3 Sudeste 4 Sudeste 0 -- -- 82
2018-05-23 07:00:00 13.3 0 Calma -- -- 0 -- -- 83
2018-05-23 06:00:00 14.3 0 Calma -- -- 0 -- -- 80
2018-05-23 05:00:00 14.5 0 Calma 3 Sudeste 0 -- -- 79
2018-05-23 04:00:00 14.6 0 Calma 3 Sudoeste 0 -- -- 78
2018-05-23 03:00:00 14.9 0 Calma 4 Oeste 0 -- -- 77
2018-05-23 02:00:00 15.3 0 Calma 5 Sudoeste 0 -- -- 77
2018-05-23 01:00:00 16 0 Calma 6 Oeste 0 -- -- 78
2018-05-23 00:00:00 17 3 Oeste 6 Sudoeste 0 -- -- 75
2018-05-22 23:00:00 17.4 4 Sudoeste 8 Sudoeste 0 -- -- 72
2018-05-22 22:00:00 18.2 4 Sur 8 Sudoeste 0 -- -- 70
2018-05-22 21:00:00 21.6 4 Sudoeste 10 Sudoeste 0 -- -- 56
2018-05-22 20:00:00 21.9 3 Sudoeste 12 Oeste 0 -- -- 53
2018-05-22 19:00:00 23.5 3 Sur 16 Sudoeste 0 -- -- 44
2018-05-22 18:00:00 23.4 6 Sur 14 Sudoeste 0 -- -- 40
2018-05-22 17:00:00 22.6 6 Sur 15 Sudeste 0 -- -- 46
2018-05-22 16:00:00 21.6 8 Sudeste 17 Sudeste 0 -- -- 55
2018-05-22 15:00:00 20.6 6 Sudeste 16 Sudeste 0 -- -- 62
2018-05-22 14:00:00 19 6 Sur 16 Sudeste 0 -- -- 67
2018-05-22 13:00:00 17.4 8 Sudeste 18 Este 0 -- -- 72
2018-05-22 12:00:00 15.1 5 Sudeste 13 Sudeste 0 -- -- 83
2018-05-22 11:00:00 13.5 5 Sudeste 12 Este 0 -- -- 91
2018-05-22 10:00:00 12.9 5 Sur 11 Sur 0 -- -- 97
2018-05-22 09:00:00 12.6 4 Este 9 Sudeste 0 -- -- 99
2018-05-22 08:00:00 12.6 3 Este 8 Sur 0 -- -- 99
2018-05-22 07:00:00 12.5 3 Sur 8 Sudeste 0 -- -- 99
2018-05-22 06:00:00 13 5 Sur 9 Sur 0 -- -- 99
2018-05-22 05:00:00 13.3 4 Sudeste 7 Este 0 -- -- 100
2018-05-22 04:00:00 13.7 2 Este 8 Sudoeste 0 -- -- 100
2018-05-22 03:00:00 13.8 4 Sudeste 9 Sudeste 0 -- -- 99
2018-05-22 02:00:00 14.1 0 Calma 17 Sur 0 -- -- 99
2018-05-22 01:00:00 14.2 4 Sur 14 Sur 0 -- -- 97
2018-05-22 00:00:00 13.8 3 Sur 9 Sudeste 0 -- -- 91
2018-05-21 23:00:00 14.9 3 Sudoeste 14 Sudoeste 0 -- -- 88
2018-05-21 22:00:00 15.9 7 Sudoeste 22 Sudoeste 0 -- -- 83
2018-05-21 21:00:00 18.2 8 Sudoeste 17 Sudoeste 0 -- -- 74
2018-05-21 20:00:00 20 6 Sudoeste 17 Sudoeste 0 -- -- 70
2018-05-21 19:00:00 19.2 5 Sur 13 Sur 0 -- -- 74
2018-05-21 18:00:00 17.1 4 Oeste 8 Oeste 0.2 -- -- 86
2018-05-21 17:00:00 15.1 0 Calma 20 Norte 4.4 -- -- 92
2018-05-21 16:00:00 17.3 12 Noroeste 24 Noroeste 0 -- -- 78
2018-05-21 15:00:00 21.2 7 Sur 19 Sudoeste 0 -- -- 58
2018-05-21 14:00:00 20.4 10 Sudoeste 19 Sudoeste 0 -- -- 58
2018-05-21 13:00:00 19.1 8 Sudoeste 19 Oeste 0 -- -- 69
2018-05-21 12:00:00 18.1 5 Sudoeste 13 Sur 0 -- -- 72
2018-05-21 11:00:00 16.6 3 Norte 8 Norte 0 -- -- 94
2018-05-21 10:00:00 15.2 0 Calma 6 Este 0 -- -- 97
2018-05-21 09:00:00 13.8 0 Calma 2 Nordeste 0 -- -- 97
2018-05-21 08:00:00 13 0 Calma 0 Calma 0 -- -- 97
2018-05-21 07:00:00 13.1 0 Calma 5 Sudeste 0 -- -- 96
2018-05-21 06:00:00 13.7 5 Sur 10 Sur 0 -- -- 94
2018-05-21 05:00:00 13 2 Sur 4 Sudeste 0 -- -- 96
2018-05-21 04:00:00 13.1 0 Calma 8 Sudoeste 0 -- -- 96
2018-05-21 03:00:00 13.2 0 Calma 5 Oeste 0 -- -- 95
2018-05-21 02:00:00 13.4 0 Calma 9 Sudoeste 0 -- -- 94
2018-05-21 01:00:00 13.6 2 Sur 9 Sudoeste 0 -- -- 95
2018-05-21 00:00:00 13.6 5 Sur 9 Sur 0.2 -- -- 93
2018-05-20 23:00:00 13.8 2 Sudoeste 10 Norte 1.4 -- -- 92
2018-05-20 22:00:00 14.6 2 Sudoeste 15 Noroeste 0.8 -- -- 89
2018-05-20 21:00:00 16 2 Nordeste 18 Nordeste 0 -- -- 75
2018-05-20 20:00:00 19 6 Sur 17 Oeste 0 -- -- 66
2018-05-20 19:00:00 20.1 7 Oeste 17 Oeste 0 -- -- 63
2018-05-20 18:00:00 19.9 9 Noroeste 20 Oeste 0 -- -- 72
2018-05-20 17:00:00 18.2 6 Noroeste 12 Noroeste 0 -- -- 76
2018-05-20 16:00:00 15.7 4 Norte 14 Oeste 1.4 -- -- 85
2018-05-20 15:00:00 16.4 7 Noroeste 11 Noroeste 0 -- -- 80
2018-05-20 14:00:00 17.6 3 Nordeste 18 Nordeste 0 -- -- 72
2018-05-20 13:00:00 18.4 7 Nordeste 20 Este 0.2 -- -- 76
2018-05-20 12:00:00 18.4 4 Nordeste 7 Nordeste 0 -- -- 75
2018-05-20 11:00:00 17.2 0 Calma 2 Noroeste 0 -- -- 74
2018-05-20 10:00:00 16.1 2 Noroeste 4 Noroeste 0 -- -- 80
2018-05-20 09:00:00 14.1 0 Calma 3 Sur 0 -- -- 94
2018-05-20 08:00:00 12.8 0 Calma 3 Sur 0 -- -- 93
2018-05-20 07:00:00 12.3 0 Calma 2 Sudoeste 0 -- -- 94
2018-05-20 06:00:00 11.7 0 Calma 4 Nordeste 0 -- -- 95
2018-05-20 05:00:00 12.3 2 Sur 4 Sur 0 -- -- 92
2018-05-20 04:00:00 13.2 0 Calma 9 Sudeste 0 -- -- 86
2018-05-20 03:00:00 13.4 0 Calma 5 Oeste 0 -- -- 87
2018-05-20 02:00:00 13.8 2 Sudoeste 6 Oeste 0 -- -- 86
2018-05-20 01:00:00 13.8 2 Sudoeste 6 Oeste 0 -- -- 88
2018-05-20 00:00:00 13.8 0 Calma 4 Oeste 0 -- -- 89
2018-05-19 23:00:00 15.1 0 Calma 14 Sudoeste 0 -- -- 83
2018-05-19 22:00:00 16.1 8 Sudoeste 13 Oeste 0 -- -- 78
2018-05-19 21:00:00 17.2 3 Sudoeste 9 Sur 0 -- -- 73
2018-05-19 20:00:00 17.8 5 Sur 18 Sudeste 0 -- -- 71
2018-05-19 19:00:00 19.6 0 Calma 14 Nordeste 0 -- -- 55
2018-05-19 18:00:00 21.1 8 Este 21 Este 0 -- -- 59
2018-05-19 17:00:00 21.4 9 Sur 14 Sudoeste 0.4 -- -- 68
2018-05-19 16:00:00 24.3 4 Este 11 Nordeste 0 -- -- 47
2018-05-19 15:00:00 24.1 4 Nordeste 18 Sudeste 0 -- -- 44
2018-05-19 14:00:00 23.1 6 Sudeste 14 Este 0 -- -- 46
2018-05-19 13:00:00 21.8 4 Nordeste 10 Nordeste 0 -- -- 60
2018-05-19 12:00:00 19.6 6 Este 17 Este 0 -- -- 69
2018-05-19 11:00:00 17.7 5 Nordeste 13 Nordeste 0 -- -- 76
2018-05-19 10:00:00 16 2 Norte 7 Este 0 -- -- 91
2018-05-19 09:00:00 14.7 3 Este 6 Este 0 -- -- 88
2018-05-19 08:00:00 12.9 5 Este 8 Nordeste 0 -- -- 92
2018-05-19 07:00:00 13 6 Este 9 Este 0 -- -- 93
2018-05-19 06:00:00 13 2 Este 6 Este 0 -- -- 95
2018-05-19 05:00:00 13.1 0 Calma 2 Sudeste 0 -- -- 95
2018-05-19 04:00:00 12.9 0 Calma 2 Sudeste 0 -- -- 95
2018-05-19 03:00:00 12.9 0 Calma 9 Sudeste 0 -- -- 95
2018-05-19 02:00:00 13.1 5 Sudeste 10 Sudeste 0 -- -- 95
2018-05-19 01:00:00 13.3 0 Calma 9 Nordeste 0 -- -- 95
2018-05-19 00:00:00 13.4 3 Noroeste 8 Noroeste 0.2 -- -- 95
2018-05-18 23:00:00 13.4 2 Noroeste 14 Este 6.2 -- -- 96
2018-05-18 22:00:00 13.2 8 Este 21 Sur 8.2 -- -- 94
2018-05-18 21:00:00 15.1 4 Sudeste 25 Sur 0.2 -- -- 81
2018-05-18 20:00:00 18.5 0 Calma 18 Noroeste 0 -- -- 71
2018-05-18 19:00:00 20.3 4 Norte 10 Norte 0 -- -- 66
2018-05-18 18:00:00 20.4 3 Noroeste 8 Noroeste 0 -- -- 67
2018-05-18 17:00:00 20.6 4 Este 9 Este 0 -- -- 62
2018-05-18 16:00:00 19.9 0 Calma 11 Este 0 -- -- 68
2018-05-18 15:00:00 21.1 7 Este 18 Este 0 -- -- 58
2018-05-18 14:00:00 22.5 4 Nordeste 15 Este 0 -- -- 59
2018-05-18 13:00:00 21.6 9 Nordeste 17 Este 0 -- -- 63
2018-05-18 12:00:00 19.3 6 Este 10 Sur 0 -- -- 66
2018-05-18 11:00:00 16.5 0 Calma 4 Nordeste 0 -- -- 89
2018-05-18 10:00:00 14.7 0 Calma 5 Sudeste 0 -- -- 95
2018-05-18 09:00:00 14.3 3 Oeste 10 Noroeste 0.8 -- -- 92
2018-05-18 08:00:00 13.6 3 Oeste 7 Sudoeste 0 -- -- 96
2018-05-18 07:00:00 12.7 0 Calma 8 Oeste 0 -- -- 95
2018-05-18 06:00:00 13.1 4 Oeste 9 Oeste 0 -- -- 94
2018-05-18 05:00:00 13.5 4 Oeste 13 Oeste 0 -- -- 93
2018-05-18 04:00:00 13.8 4 Sudoeste 14 Sudoeste 0 -- -- 91
2018-05-18 03:00:00 14.3 4 Sudoeste 21 Sudoeste 0 -- -- 88
2018-05-18 02:00:00 15.1 12 Sudoeste 21 Sudoeste 0 -- -- 84
2018-05-18 01:00:00 15.4 7 Oeste 25 Oeste 0 -- -- 79
2018-05-18 00:00:00 16 11 Oeste 26 Oeste 0 -- -- 76
2018-05-17 23:00:00 16.7 12 Oeste 27 Oeste 0 -- -- 72
2018-05-17 22:00:00 17.7 12 Oeste 25 Oeste 0 -- -- 69
2018-05-17 21:00:00 20.3 6 Sudoeste 22 Sudoeste 0 -- -- 61
2018-05-17 20:00:00 22.8 10 Sudoeste 24 Sudoeste 0 -- -- 51
2018-05-17 19:00:00 25 5 Sudoeste 17 Sudoeste 0 -- -- 41
2018-05-17 18:00:00 25.5 2 Sudoeste 10 Sudeste 0 -- -- 40
2018-05-17 17:00:00 24.2 3 Sudeste 14 Sur 0 -- -- 40
2018-05-17 16:00:00 25.1 4 Oeste 17 Sur 0 -- -- 39
2018-05-17 15:00:00 24.4 7 Sur 20 Este 0 -- -- 42
2018-05-17 14:00:00 23.7 7 Sur 19 Sudeste 0 -- -- 45
2018-05-17 13:00:00 23.1 7 Sudeste 18 Sudeste 0 -- -- 49
2018-05-17 12:00:00 22.5 6 Sudeste 13 Sur 0 -- -- 44
2018-05-17 11:00:00 20.2 5 Noroeste 12 Noroeste 0 -- -- 46
2018-05-17 10:00:00 18.5 2 Nordeste 8 Noroeste 0 -- -- 58
2018-05-17 09:00:00 14.8 3 Noroeste 6 Oeste 0 -- -- 72
2018-05-17 08:00:00 12.5 2 Oeste 4 Oeste 0 -- -- 82
2018-05-17 07:00:00 12.2 0 Calma 7 Sudoeste 0 -- -- 81
2018-05-17 06:00:00 12.8 3 Sudoeste 11 Oeste 0 -- -- 77
2018-05-17 05:00:00 14 5 Sudoeste 17 Sudoeste 0 -- -- 70
2018-05-17 04:00:00 14.3 6 Sudoeste 13 Oeste 0 -- -- 67
2018-05-17 03:00:00 15 7 Sur 13 Sur 0 -- -- 68
2018-05-17 02:00:00 16.3 0 Calma 17 Sudoeste 0 -- -- 65
2018-05-17 01:00:00 18.3 6 Sudoeste 12 Sudoeste 0 -- -- 56
2018-05-17 00:00:00 19.6 4 Oeste 10 Oeste 0 -- -- 51
2018-05-16 23:00:00 20.1 0 Calma 6 Sudoeste 0 -- -- 50
2018-05-16 22:00:00 21.5 4 Sudoeste 6 Sudoeste 0 -- -- 44
2018-05-16 21:00:00 24.9 3 Sur 8 Sudeste 0 -- -- 41
2018-05-16 20:00:00 26 6 Este 18 Sur 0 -- -- 34
2018-05-16 19:00:00 26.3 5 Este 20 Este 0 -- -- 35
2018-05-16 18:00:00 26.6 9 Este 23 Sudeste 0 -- -- 37
2018-05-16 17:00:00 26.8 10 Este 27 Este 0 -- -- 32
2018-05-16 16:00:00 26.5 5 Este 22 Este 0 -- -- 37
2018-05-16 15:00:00 25.9 11 Este 24 Este 0 -- -- 34
2018-05-16 14:00:00 25.5 10 Este 24 Este 0 -- -- 34
2018-05-16 13:00:00 24.9 12 Este 21 Este 0 -- -- 40
2018-05-16 12:00:00 23.1 10 Este 21 Nordeste 0 -- -- 44
2018-05-16 11:00:00 21.5 11 Este 22 Este 0 -- -- 44
2018-05-16 10:00:00 19.2 10 Este 19 Este 0 -- -- 48
2018-05-16 09:00:00 16.6 4 Este 10 Este 0 -- -- 57
2018-05-16 08:00:00 15.3 4 Este 7 Este 0 -- -- 55
2018-05-16 07:00:00 15.4 3 Este 10 Sudeste 0 -- -- 53
2018-05-16 06:00:00 14.7 4 Este 6 Sudeste 0 -- -- 54
2018-05-16 05:00:00 14.5 2 Sudeste 5 Este 0 -- -- 57
2018-05-16 04:00:00 14.9 3 Este 6 Este 0 -- -- 53
2018-05-16 03:00:00 15.3 0 Calma 4 Este 0 -- -- 50
2018-05-16 02:00:00 15.5 0 Calma 3 Este 0 -- -- 51
2018-05-16 01:00:00 15.6 0 Calma 2 Sudeste 0 -- -- 50
2018-05-16 00:00:00 16.3 0 Calma 2 Noroeste 0 -- -- 52
2018-05-15 23:00:00 17.7 0 Calma 5 Nordeste 0 -- -- 45
2018-05-15 22:00:00 19.4 0 Calma 8 Nordeste 0 -- -- 46
2018-05-15 21:00:00 23.8 3 Norte 15 Nordeste 0 -- -- 33
2018-05-15 20:00:00 26.3 5 Nordeste 17 Este 0 -- -- 31
2018-05-15 19:00:00 27.2 4 Norte 21 Este 0 -- -- 35
2018-05-15 18:00:00 27 5 Norte 21 Norte 0 -- -- 34
2018-05-15 17:00:00 26.7 5 Norte 17 Nordeste 0 -- -- 36
2018-05-15 16:00:00 25.8 5 Norte 22 Este 0 -- -- 33
2018-05-15 15:00:00 25.3 8 Norte 18 Nordeste 0 -- -- 35
2018-05-15 14:00:00 24.5 10 Nordeste 22 Este 0 -- -- 37
2018-05-15 13:00:00 23.8 8 Nordeste 24 Este 0 -- -- 39
2018-05-15 12:00:00 22.4 10 Este 21 Este 0 -- -- 43
2018-05-15 11:00:00 20.7 10 Nordeste 25 Este 0 -- -- 47
2018-05-15 10:00:00 18.2 7 Nordeste 18 Nordeste 0 -- -- 51
2018-05-15 09:00:00 14.6 6 Nordeste 14 Nordeste 0 -- -- 64
2018-05-15 08:00:00 12.3 0 Calma 6 Este 0 -- -- 71
2018-05-15 07:00:00 11.8 0 Calma 2 Sudeste 0 -- -- 70
2018-05-15 06:00:00 12.3 0 Calma 6 Nordeste 0 -- -- 69
2018-05-15 05:00:00 13 2 Este 9 Nordeste 0 -- -- 67
2018-05-15 04:00:00 13.9 3 Este 12 Este 0 -- -- 62
2018-05-15 03:00:00 14.5 6 Este 12 Nordeste 0 -- -- 62
2018-05-15 02:00:00 15.3 6 Nordeste 17 Este 0 -- -- 60
2018-05-15 01:00:00 15 3 Noroeste 7 Norte 0 -- -- 64
2018-05-15 00:00:00 15.1 0 Calma 4 Norte 0 -- -- 65
2018-05-14 23:00:00 16.1 0 Calma 6 Noroeste 0 -- -- 64
2018-05-14 22:00:00 17.9 0 Calma 9 Nordeste 0 -- -- 59
2018-05-14 21:00:00 20.7 4 Nordeste 19 Norte 0 -- -- 48
2018-05-14 20:00:00 23.2 6 Nordeste 27 Noroeste 0 -- -- 43
2018-05-14 19:00:00 24.5 7 Norte 23 Norte 0 -- -- 38
2018-05-14 18:00:00 23.4 13 Norte 23 Norte 0 -- -- 42
2018-05-14 17:00:00 24.9 7 Norte 31 Noroeste 0 -- -- 46
2018-05-14 16:00:00 24.1 8 Norte 26 Norte 0 -- -- 50
2018-05-14 15:00:00 24 7 Norte 21 Norte 0 -- -- 48
2018-05-14 14:00:00 22.7 7 Norte 22 Norte 0 -- -- 45
2018-05-14 13:00:00 21.7 5 Nordeste 18 Este 0 -- -- 45
2018-05-14 12:00:00 20.3 6 Norte 21 Norte 0 -- -- 44
2018-05-14 11:00:00 17.9 5 Nordeste 19 Este 0 -- -- 55
2018-05-14 10:00:00 14.5 6 Norte 22 Norte 0 -- -- 62
2018-05-14 09:00:00 11.9 6 Norte 18 Norte 0 -- -- 72
2018-05-14 08:00:00 9.4 3 Norte 15 Nordeste 0 -- -- 78
2018-05-14 07:00:00 8.9 0 Calma 8 Sudeste 0 -- -- 76
2018-05-14 06:00:00 10.1 3 Nordeste 14 Norte 0 -- -- 71
2018-05-14 05:00:00 11.1 10 Norte 16 Norte 0 -- -- 64
2018-05-14 04:00:00 11.9 7 Norte 20 Norte 0 -- -- 59
2018-05-14 03:00:00 11 4 Noroeste 9 Norte 0 -- -- 64
2018-05-14 02:00:00 10.9 0 Calma 6 Noroeste 0 -- -- 63
2018-05-14 01:00:00 11.4 0 Calma 11 Noroeste 0 -- -- 64
2018-05-11 20:00:00 -- -- -- -- -- -- -- -- --
2018-05-11 19:00:00 21.7 6 Sudoeste 18 Sudoeste 0 -- -- 46
2018-05-11 18:00:00 21.8 8 Sudoeste 24 Sur 0 -- -- 47
2018-05-11 17:00:00 21.2 6 Sudoeste 22 Sudoeste 0 -- -- 50
2018-05-11 16:00:00 20.3 6 Sur 21 Sur 0 -- -- 59
2018-05-11 15:00:00 19.3 6 Sur 21 Sur 0 -- -- 62
2018-05-11 14:00:00 18.2 7 Sur 22 Sudeste 0 -- -- 67
2018-05-11 13:00:00 17.2 11 Sudeste 21 Sur 0 -- -- 69
2018-05-11 12:00:00 17.1 11 Sudeste 19 Sur 0 -- -- 74
2018-05-11 11:00:00 16 8 Sudeste 22 Este 0 -- -- 78
2018-05-11 10:00:00 15.1 5 Este 14 Este 0 -- -- 81
2018-05-11 09:00:00 11.5 0 Calma 3 Nordeste 0 -- -- 96
2018-05-11 08:00:00 9.8 0 Calma 4 Sur 0 -- -- 96
2018-05-11 07:00:00 10 0 Calma 3 Sudeste 0 -- -- 95
2018-05-11 06:00:00 11 2 Sudeste 10 Sur 0 -- -- 90
2018-05-11 05:00:00 11 4 Sur 7 Sur 0 -- -- 93
2018-05-11 04:00:00 11.1 0 Calma 4 Oeste 0 -- -- 91
2018-05-11 03:00:00 11.3 0 Calma 3 Sudoeste 0 -- -- 89
2018-05-11 02:00:00 11.5 0 Calma 3 Oeste 0 -- -- 89
2018-05-11 01:00:00 12.1 0 Calma 10 Sudoeste 0 -- -- 85
2018-05-11 00:00:00 13 5 Sur 14 Sudoeste 0 -- -- 82
2018-05-10 23:00:00 13.7 7 Sudoeste 14 Sur 0 -- -- 79
2018-05-10 22:00:00 15 8 Sudoeste 18 Sudoeste 0 -- -- 72
2018-05-10 21:00:00 17.4 9 Sudoeste 21 Sur 0 -- -- 62
2018-05-10 20:00:00 19.8 10 Sur 21 Sur 0 -- -- 51
2018-05-10 19:00:00 21.4 6 Sudoeste 17 Sur 0 -- -- 43
2018-05-10 18:00:00 20.7 9 Sudeste 20 Sur 0 -- -- 47
2018-05-10 17:00:00 20.8 4 Sur 16 Sudoeste 0 -- -- 52
2018-05-10 16:00:00 20.2 8 Sudeste 19 Sudeste 0 -- -- 54
2018-05-10 15:00:00 19.3 7 Sudeste 17 Sudoeste 0 -- -- 57
2018-05-10 14:00:00 18.6 9 Sudoeste 19 Sur 0 -- -- 63
2018-05-10 13:00:00 18.4 9 Sudeste 21 Sudeste 0 -- -- 60
2018-05-10 12:00:00 17.1 6 Sudeste 17 Sudeste 0 -- -- 73
2018-05-10 11:00:00 15.4 8 Sur 19 Sur 0 -- -- 78
2018-05-10 10:00:00 14.4 7 Sur 15 Sur 0 -- -- 81
2018-05-10 09:00:00 12 0 Calma 3 Sudeste 0 -- -- 92
2018-05-10 08:00:00 11.3 0 Calma 5 Oeste 0 -- -- 92
2018-05-10 07:00:00 11.5 3 Oeste 10 Oeste 0 -- -- 90
2018-05-10 06:00:00 11.8 4 Oeste 8 Oeste 0 -- -- 92
2018-05-10 05:00:00 12.2 3 Noroeste 17 Oeste 0 -- -- 93
2018-05-10 04:00:00 12.8 6 Noroeste 16 Oeste 0 -- -- 93
2018-05-10 03:00:00 13 3 Sudoeste 7 Sudoeste 0 -- -- 95
2018-05-10 02:00:00 13.5 0 Calma 8 Oeste 0 -- -- 94
2018-05-10 01:00:00 13.9 2 Sudoeste 6 Oeste 0 -- -- 91
2018-05-10 00:00:00 14.8 5 Oeste 10 Oeste 0 -- -- 88
2018-05-09 23:00:00 15 3 Oeste 12 Noroeste 0 -- -- 89
2018-05-09 22:00:00 16.3 4 Sudoeste 13 Sudoeste 0 -- -- 85
2018-05-09 21:00:00 17.3 7 Sudoeste 17 Sudoeste 0.2 -- -- 85
2018-05-09 20:00:00 18.2 7 Sudoeste 20 Sudoeste 0 -- -- 81
2018-05-09 19:00:00 18.9 8 Sudoeste 21 Sudoeste 0 -- -- 82
2018-05-09 18:00:00 18.7 8 Sur 17 Sur 0 -- -- 85
2018-05-09 17:00:00 17.7 7 Sur 14 Sur 0 -- -- 92
2018-05-09 16:00:00 16.8 6 Sudoeste 12 Oeste 0 -- -- 95
2018-05-09 15:00:00 16.3 4 Sur 14 Sudoeste 0 -- -- 97
2018-05-09 14:00:00 15.7 5 Sudoeste 12 Sur 0 -- -- 97
2018-05-09 13:00:00 15.8 5 Sudoeste 13 Sudoeste 0 -- -- 94
2018-05-09 12:00:00 15.9 6 Sudoeste 12 Sudoeste 0 -- -- 92
2018-05-09 11:00:00 15.3 5 Sur 12 Sudeste 0 -- -- 97
2018-05-09 10:00:00 14.8 3 Sur 8 Sur 0 -- -- 100
2018-05-09 09:00:00 13.8 0 Calma 4 Sudoeste 0 -- -- 100
2018-05-09 08:00:00 13.3 0 Calma 10 Noroeste 0 -- -- 100
2018-05-09 07:00:00 14 3 Oeste 11 Sur 0 -- -- 100
2018-05-09 06:00:00 14.2 3 Sur 13 Sudoeste 0 -- -- 100
2018-05-09 05:00:00 14.1 5 Sudoeste 13 Sudoeste 0 -- -- 100
2018-05-09 04:00:00 13.4 0 Calma 11 Sur 0 -- -- 98
2018-05-09 03:00:00 14.1 0 Calma 10 Este 0 -- -- 99
2018-05-09 02:00:00 14.2 3 Sudoeste 14 Sudeste 0 -- -- 97
2018-05-09 01:00:00 14.7 7 Sudeste 12 Sudeste 0 -- -- 97
2018-05-09 00:00:00 15.3 3 Oeste 14 Oeste 0.2 -- -- 97
2018-05-08 23:00:00 15.3 4 Sudoeste 9 Norte 2.6 -- -- 97
2018-05-08 22:00:00 15.7 0 Calma 6 Norte 3.2 -- -- 98
2018-05-08 21:00:00 15.7 3 Sudoeste 12 Nordeste 0.6 -- -- 98
2018-05-08 20:00:00 15.6 2 Sudeste 18 Este 1.2 -- -- 96
2018-05-08 19:00:00 16.4 0 Calma 9 Norte 2.4 -- -- 95
2018-05-08 18:00:00 17.6 5 Sudoeste 19 Sudoeste 13.2 -- -- 89
2018-05-08 17:00:00 20.9 14 Sur 27 Sur 0 -- -- 81
2018-05-08 16:00:00 17 12 Sudoeste 29 Sudeste 27.4 -- -- 96
2018-05-08 15:00:00 17.6 10 Sur 23 Noroeste 10.6 -- -- 83
2018-05-08 14:00:00 22.3 8 Oeste 18 Sudoeste 0 -- -- 69
2018-05-08 13:00:00 20.8 5 Sudoeste 15 Sudoeste 0 -- -- 72
2018-05-08 12:00:00 19.1 7 Sudoeste 13 Sudoeste 0 -- -- 76
2018-05-08 11:00:00 16.4 4 Oeste 10 Sudoeste 0.2 -- -- 95
2018-05-08 10:00:00 14.7 6 Oeste 13 Sudoeste 2.6 -- -- 96
2018-05-08 09:00:00 13.9 0 Calma 7 Norte 1.2 -- -- 94
2018-05-08 08:00:00 14.4 0 Calma 7 Sudoeste 0 -- -- 92
2018-05-08 07:00:00 13.6 0 Calma 6 Sur 0 -- -- 90
2018-05-08 06:00:00 14.1 4 Sur 8 Sur 0 -- -- 89
2018-05-08 05:00:00 13.7 0 Calma 6 Oeste 0 -- -- 89
2018-05-08 04:00:00 14 4 Sudoeste 7 Oeste 0 -- -- 86
2018-05-08 03:00:00 14.3 0 Calma 5 Oeste 0 -- -- 87
2018-05-08 02:00:00 15 0 Calma 10 Oeste 0 -- -- 86
2018-05-08 01:00:00 16 4 Sudoeste 13 Oeste 0 -- -- 82
2018-05-08 00:00:00 16.3 6 Oeste 13 Oeste 0 -- -- 79
2018-05-07 23:00:00 16.3 5 Oeste 10 Oeste 0 -- -- 78
2018-05-07 22:00:00 17.3 3 Noroeste 8 Oeste 0 -- -- 77
2018-05-07 21:00:00 18.6 3 Noroeste 12 Noroeste 0 -- -- 73
2018-05-07 20:00:00 19.9 5 Oeste 18 Noroeste 0 -- -- 66
2018-05-07 19:00:00 21.5 13 Noroeste 27 Noroeste 0 -- -- 58
2018-05-07 18:00:00 22.8 5 Norte 15 Noroeste 0 -- -- 57
2018-05-07 17:00:00 23.2 3 Norte 11 Sudeste 0 -- -- 55
2018-05-07 16:00:00 24.2 3 Nordeste 18 Sur 0 -- -- 51
2018-05-07 15:00:00 23.5 8 Sur 21 Sudeste 0 -- -- 51
2018-05-07 14:00:00 22.3 8 Sudeste 21 Sudeste 0 -- -- 54
2018-05-07 13:00:00 22.2 5 Nordeste 19 Sur 0 -- -- 54
2018-05-07 12:00:00 21.2 4 Sur 12 Nordeste 0 -- -- 61
2018-05-07 11:00:00 20 4 Sudeste 10 Sudeste 0 -- -- 63
2018-05-07 10:00:00 17.5 0 Calma 4 Este 0 -- -- 74
2018-05-07 09:00:00 14 0 Calma 3 Noroeste 0 -- -- 82
2018-05-07 08:00:00 11.8 0 Calma 2 Sudoeste 0 -- -- 93
2018-05-07 07:00:00 11.6 0 Calma 3 Sudoeste 0 -- -- 92
2018-05-07 06:00:00 11.9 0 Calma 3 Sudeste 0 -- -- 94
2018-05-07 05:00:00 12.2 0 Calma 4 Nordeste 0 -- -- 94
2018-05-07 04:00:00 12.6 3 Sudeste 7 Sudeste 0 -- -- 91
2018-05-07 03:00:00 13.2 3 Sudeste 7 Sur 0 -- -- 89
2018-05-07 02:00:00 13.7 5 Este 9 Este 0.2 -- -- 88
2018-05-07 01:00:00 13.7 5 Este 6 Este 0 -- -- 89
2018-05-07 00:00:00 13.8 0 Calma 5 Sudeste 0 -- -- 91
2018-05-06 23:00:00 14.1 3 Oeste 8 Oeste 0 -- -- 89
2018-05-06 22:00:00 14.4 2 Oeste 6 Oeste 0 -- -- 91
2018-05-06 21:00:00 14.9 4 Sudeste 25 Sudeste 1.4 -- -- 88
2018-05-06 20:00:00 14.9 13 Sudeste 27 Este 7 -- -- 80
2018-05-06 19:00:00 23.3 4 Sudeste 17 Nordeste 0 -- -- 48
2018-05-06 18:00:00 22.8 6 Este 13 Este 0 -- -- 55
2018-05-06 17:00:00 21.8 6 Este 23 Este 0 -- -- 56
2018-05-06 16:00:00 23.1 10 Este 22 Este 0 -- -- 52
2018-05-06 15:00:00 23.3 7 Este 22 Nordeste 0 -- -- 52
2018-05-06 14:00:00 23.4 9 Este 21 Este 0 -- -- 54
2018-05-06 13:00:00 22 8 Este 22 Sudeste 0 -- -- 52
2018-05-06 12:00:00 20.5 12 Este 26 Sudeste 0 -- -- 59
2018-05-06 11:00:00 19.1 13 Este 27 Este 0 -- -- 58
2018-05-06 10:00:00 17.6 12 Este 23 Este 0 -- -- 65
2018-05-06 09:00:00 14.5 7 Este 15 Este 0 -- -- 79
2018-05-06 08:00:00 12.3 5 Sudeste 8 Sudeste 0 -- -- 84
2018-05-06 07:00:00 12.6 5 Sudeste 9 Sudeste 0 -- -- 82
2018-05-06 06:00:00 12.7 3 Este 5 Este 0 -- -- 82
2018-05-06 05:00:00 13.2 0 Calma 8 Sudeste 0 -- -- 78
2018-05-06 04:00:00 13.9 5 Sur 9 Sur 0 -- -- 70
2018-05-06 03:00:00 14.6 0 Calma 6 Sudeste 0 -- -- 69
2018-05-06 02:00:00 15.4 2 Sudoeste 4 Sudoeste 0 -- -- 65
2018-05-06 01:00:00 15.8 3 Oeste 5 Oeste 0 -- -- 64
2018-05-06 00:00:00 16.3 0 Calma 0 Calma 0 -- -- 62
2018-05-05 23:00:00 17.1 0 Calma 3 Sur 0 -- -- 59
2018-05-05 22:00:00 18.3 0 Calma 5 Sudoeste 0 -- -- 54
2018-05-05 21:00:00 21.3 0 Calma 6 Sur 0 -- -- 49
2018-05-05 20:00:00 23.5 3 Sur 13 Oeste 0 -- -- 37
2018-05-05 19:00:00 24.4 5 Noroeste 13 Noroeste 0 -- -- 39
2018-05-05 18:00:00 24.6 6 Sudoeste 18 Sudoeste 0 -- -- 38
2018-05-05 17:00:00 23.6 7 Sudoeste 16 Oeste 0 -- -- 40
2018-05-05 16:00:00 23.5 5 Sudeste 18 Sur 0 -- -- 39
2018-05-05 15:00:00 23 6 Sudeste 16 Sudeste 0 -- -- 44
2018-05-05 14:00:00 21.9 6 Sur 14 Sudeste 0 -- -- 47
2018-05-05 13:00:00 21.2 6 Este 14 Este 0 -- -- 55
2018-05-05 12:00:00 19.6 3 Nordeste 13 Este 0 -- -- 63
2018-05-05 11:00:00 18.1 3 Sudeste 12 Este 0 -- -- 73
2018-05-05 10:00:00 14.4 2 Nordeste 5 Nordeste 0 -- -- 95
2018-05-05 09:00:00 12 0 Calma 6 Este 0 -- -- 99
2018-05-05 08:00:00 10.4 0 Calma 5 Sudeste 0 -- -- 99
2018-05-05 07:00:00 10.2 0 Calma 4 Sudeste 0 -- -- 97
2018-05-05 06:00:00 10.5 0 Calma 4 Sudeste 0 -- -- 97
2018-05-05 05:00:00 11 0 Calma 4 Sudeste 0 -- -- 96
2018-05-05 04:00:00 11.2 0 Calma 0 Calma 0 -- -- 96
2018-05-05 03:00:00 11.4 0 Calma 4 Sudoeste 0 -- -- 96
2018-05-05 02:00:00 11.7 2 Sudoeste 4 Sudoeste 0 -- -- 96
2018-05-05 01:00:00 11.8 3 Oeste 4 Oeste 0 -- -- 96
2018-05-05 00:00:00 12 0 Calma 4 Noroeste 0 -- -- 95
2018-05-04 23:00:00 12.3 0 Calma 6 Sudoeste 0 -- -- 91
2018-05-04 22:00:00 13.5 2 Sudoeste 24 Sur 0 -- -- 87
2018-05-04 21:00:00 14.4 12 Sur 32 Sudoeste 0 -- -- 84
2018-05-04 20:00:00 17.4 19 Sur 31 Sur 0 -- -- 72
2018-05-04 19:00:00 22.8 7 Este 14 Sudeste 0 -- -- 39
2018-05-04 18:00:00 22.5 2 Oeste 13 Nordeste 0 -- -- 41
2018-05-04 17:00:00 20.6 0 Calma 19 Nordeste 0 -- -- 44
2018-05-04 16:00:00 21.1 3 Este 10 Sur 0 -- -- 43
2018-05-04 15:00:00 20.4 5 Este 11 Este 0 -- -- 46
2018-05-04 14:00:00 20.8 4 Este 19 Este 0 -- -- 45
2018-05-04 13:00:00 20.3 7 Este 16 Este 0 -- -- 50
2018-05-04 12:00:00 18.9 4 Nordeste 18 Este 0 -- -- 54
2018-05-04 11:00:00 18 11 Este 22 Este 0 -- -- 54
2018-05-04 10:00:00 15.9 4 Nordeste 9 Nordeste 0 -- -- 63
2018-05-04 09:00:00 12.2 0 Calma 3 Nordeste 0 -- -- 71
2018-05-04 08:00:00 9.6 0 Calma 3 Sudeste 0 -- -- 79
2018-05-04 07:00:00 10 0 Calma 3 Noroeste 0 -- -- 74
2018-05-04 06:00:00 11 0 Calma 6 Oeste 0 -- -- 71
2018-05-04 05:00:00 11.3 2 Oeste 5 Oeste 0 -- -- 72
2018-05-04 04:00:00 12.2 0 Calma 6 Oeste 0 -- -- 74
2018-05-04 03:00:00 12.1 0 Calma 8 Noroeste 0 -- -- 74
2018-05-04 02:00:00 13 0 Calma 9 Noroeste 0 -- -- 73
2018-05-04 01:00:00 14.4 4 Noroeste 10 Noroeste 0 -- -- 68
2018-05-04 00:00:00 15.5 5 Noroeste 14 Noroeste 0 -- -- 64
2018-05-03 23:00:00 16.3 6 Noroeste 18 Noroeste 0 -- -- 60
2018-05-03 22:00:00 17.1 7 Norte 14 Norte 0 -- -- 57
2018-05-03 21:00:00 18.4 4 Norte 19 Noroeste 0 -- -- 54
2018-05-03 20:00:00 20.8 13 Norte 25 Norte 0 -- -- 47
2018-05-03 19:00:00 22.4 4 Norte 16 Norte 0 -- -- 41
2018-05-03 18:00:00 21.6 4 Norte 17 Noroeste 0 -- -- 45
2018-05-03 17:00:00 21.4 5 Noroeste 18 Oeste 0 -- -- 49
2018-05-03 16:00:00 21 6 Noroeste 19 Norte 0 -- -- 47
2018-05-03 15:00:00 20.3 5 Noroeste 16 Sudoeste 0 -- -- 46
2018-05-03 14:00:00 20.7 5 Nordeste 18 Nordeste 0 -- -- 49
2018-05-03 13:00:00 19.2 4 Norte 13 Noroeste 0 -- -- 53
2018-05-03 12:00:00 17.9 6 Norte 14 Noroeste 0 -- -- 57
2018-05-03 11:00:00 17 4 Nordeste 13 Noroeste 0 -- -- 64
2018-05-03 10:00:00 13.9 5 Norte 13 Noroeste 0 -- -- 72
2018-05-03 09:00:00 11.5 6 Noroeste 12 Noroeste 0 -- -- 79
2018-05-03 08:00:00 8.6 0 Calma 6 Oeste 0 -- -- 91
2018-05-03 07:00:00 8.5 2 Noroeste 10 Oeste 0 -- -- 89
2018-05-03 06:00:00 9.2 4 Noroeste 11 Noroeste 0 -- -- 86
2018-05-03 05:00:00 9.3 5 Noroeste 15 Noroeste 0 -- -- 83
2018-05-03 04:00:00 9.7 5 Noroeste 13 Noroeste 0 -- -- 80
2018-05-03 03:00:00 9.6 5 Noroeste 10 Noroeste 0 -- -- 80
2018-05-03 02:00:00 10.1 4 Noroeste 10 Norte 0 -- -- 77
2018-05-03 01:00:00 10.3 5 Noroeste 8 Noroeste 0 -- -- 73
2018-05-03 00:00:00 10.6 3 Norte 9 Sudoeste 0 -- -- 74
2018-05-02 23:00:00 11.7 5 Sudoeste 13 Sudoeste 0 -- -- 73
2018-05-02 22:00:00 12.8 8 Sudoeste 18 Sudoeste 0 -- -- 68
2018-05-02 21:00:00 14.8 10 Sudoeste 20 Sudoeste 0 -- -- 57
2018-05-02 20:00:00 16.7 6 Sudoeste 22 Sudoeste 0 -- -- 42
2018-05-02 19:00:00 18.5 10 Sudoeste 19 Noroeste 0 -- -- 37
2018-05-02 18:00:00 18.1 6 Sudoeste 18 Sur 0 -- -- 37
2018-05-02 17:00:00 17.6 7 Oeste 23 Oeste 0 -- -- 41
2018-05-02 16:00:00 17.5 6 Sudoeste 20 Sudoeste 0 -- -- 43
2018-05-02 15:00:00 17.5 10 Sudoeste 22 Oeste 0 -- -- 44
2018-05-02 14:00:00 16.7 9 Sudoeste 19 Oeste 0 -- -- 46
2018-05-02 13:00:00 15.7 6 Noroeste 19 Sudoeste 0 -- -- 53
2018-05-02 12:00:00 15 4 Sudoeste 13 Sudoeste 0 -- -- 47
2018-05-02 11:00:00 13.5 4 Noroeste 9 Sudoeste 0 -- -- 47
2018-05-02 10:00:00 11.2 2 Sur 5 Sur 0 -- -- 66
2018-05-02 09:00:00 9 2 Nordeste 4 Nordeste 0 -- -- 69
2018-05-02 08:00:00 6 0 Calma 9 Noroeste 0 -- -- 82
2018-05-02 07:00:00 5.8 0 Calma 5 Noroeste 0 -- -- 85
2018-05-02 06:00:00 6 0 Calma 6 Oeste 0 -- -- 86
2018-05-02 05:00:00 6.9 4 Oeste 12 Oeste 0 -- -- 83
2018-05-02 04:00:00 7.4 5 Noroeste 13 Oeste 0 -- -- 83
2018-05-02 03:00:00 7.9 3 Oeste 13 Oeste 0 -- -- 81
2018-05-02 02:00:00 9 8 Oeste 19 Oeste 0 -- -- 78
2018-05-02 01:00:00 7.8 0 Calma 6 Sudoeste 0 -- -- 81
2018-05-02 00:00:00 8.5 0 Calma 6 Oeste 0 -- -- 77
2018-05-01 23:00:00 9.5 3 Oeste 10 Noroeste 0 -- -- 73
2018-05-01 22:00:00 10.3 3 Oeste 8 Sudoeste 0 -- -- 72
2018-05-01 21:00:00 12.7 5 Oeste 18 Sudoeste 0 -- -- 63
2018-05-01 20:00:00 15.2 7 Oeste 24 Noroeste 0 -- -- 56
2018-05-01 19:00:00 15.6 8 Noroeste 19 Oeste 0 -- -- 46
2018-05-01 18:00:00 14.7 4 Norte 18 Este 0 -- -- 55
2018-05-01 17:00:00 11.3 10 Nordeste 36 Nordeste 0 -- -- 67
2018-05-01 16:00:00 15.7 8 Nordeste 33 Norte 0 -- -- 57
2018-05-01 15:00:00 11 4 Norte 30 Norte 1 -- -- 74
2018-05-01 14:00:00 14.3 8 Noroeste 22 Oeste 0 -- -- 52
2018-05-01 13:00:00 13.5 8 Oeste 24 Oeste 0 -- -- 55
2018-05-01 12:00:00 13 5 Noroeste 16 Noroeste 0 -- -- 63
2018-05-01 11:00:00 10.5 7 Noroeste 14 Noroeste 0 -- -- 83
2018-05-01 10:00:00 9.1 2 Norte 8 Noroeste 0 -- -- 92
2018-05-01 09:00:00 8 3 Norte 9 Noroeste 0 -- -- 94
2018-05-01 08:00:00 6.1 0 Calma 6 Oeste 0 -- -- 96
2018-05-01 07:00:00 6.5 4 Oeste 9 Oeste 0 -- -- 95
2018-05-01 06:00:00 6.7 3 Oeste 8 Noroeste 0 -- -- 92
2018-05-01 05:00:00 6.9 3 Oeste 6 Oeste 0 -- -- 90
2018-05-01 04:00:00 6.6 2 Oeste 6 Oeste 0 -- -- 89
2018-05-01 03:00:00 7.1 3 Noroeste 8 Noroeste 0 -- -- 86
2018-05-01 02:00:00 7.4 2 Oeste 8 Oeste 0 -- -- 90
2018-05-01 01:00:00 8.9 5 Sudoeste 12 Oeste 0 -- -- 86
2018-05-01 00:00:00 9.3 6 Sudoeste 11 Sur 0 -- -- 84
2018-04-30 23:00:00 9.7 8 Sur 12 Sudoeste 0 -- -- 80
2018-04-30 22:00:00 9.7 0 Calma 5 Sur 0 -- -- 79
2018-04-30 21:00:00 11.6 3 Sudoeste 4 Sudoeste 0 -- -- 75
2018-04-30 20:00:00 12.5 3 Norte 21 Este 0.2 -- -- 75
2018-04-30 19:00:00 15.4 7 Oeste 23 Noroeste 0 -- -- 49
2018-04-30 18:00:00 15 6 Oeste 21 Oeste 0 -- -- 50
2018-04-30 17:00:00 14.8 9 Noroeste 22 Noroeste 0 -- -- 52
2018-04-30 16:00:00 12.7 9 Oeste 19 Noroeste 0 -- -- 62
2018-04-30 15:00:00 12.1 4 Oeste 9 Noroeste 0 -- -- 73
2018-04-30 14:00:00 10.2 2 Norte 15 Oeste 0.6 -- -- 87
2018-04-30 13:00:00 10 3 Oeste 15 Noroeste 0.4 -- -- 80
2018-04-30 12:00:00 10.6 3 Norte 10 Oeste 0 -- -- 76
2018-04-30 11:00:00 10 4 Noroeste 15 Oeste 0 -- -- 70
2018-04-30 10:00:00 10.4 3 Nordeste 11 Norte 0 -- -- 79
2018-04-30 09:00:00 6.6 0 Calma 4 Norte 0 -- -- 90
2018-04-30 08:00:00 4.6 0 Calma -- -- 0 -- -- 96
2018-04-30 07:00:00 4.6 0 Calma 0 Calma 0 -- -- 94
2018-04-30 06:00:00 4.9 0 Calma 4 Oeste 0 -- -- 93
2018-04-30 05:00:00 5.5 0 Calma 10 Oeste 0 -- -- 88
2018-04-30 04:00:00 6.7 6 Noroeste 15 Oeste 0 -- -- 83
2018-04-30 03:00:00 6.7 7 Noroeste 14 Oeste 0 -- -- 82
2018-04-30 02:00:00 6.3 3 Oeste 6 Oeste 0 -- -- 84
2018-04-30 01:00:00 7.5 3 Noroeste 13 Oeste 0 -- -- 77
2018-04-30 00:00:00 8.5 4 Oeste 13 Oeste 0 -- -- 73
2018-04-29 23:00:00 9.4 6 Oeste 15 Oeste 0 -- -- 68
2018-04-29 22:00:00 9.7 4 Oeste 18 Oeste 0 -- -- 65
2018-04-29 21:00:00 12 9 Oeste 27 Oeste 0 -- -- 53
2018-04-29 20:00:00 13.5 13 Oeste 33 Noroeste 0 -- -- 57
2018-04-29 19:00:00 13.5 16 Oeste 36 Noroeste 0 -- -- 61
2018-04-29 18:00:00 13.4 10 Oeste 35 Noroeste 0 -- -- 66
2018-04-29 17:00:00 13.4 15 Oeste 35 Oeste 0 -- -- 64
2018-04-29 16:00:00 13 10 Sudoeste 29 Noroeste 0.4 -- -- 68
2018-04-29 15:00:00 13.2 12 Oeste 31 Noroeste 0 -- -- 57
2018-04-29 14:00:00 14.4 15 Sudoeste 34 Noroeste 0 -- -- 54
2018-04-29 13:00:00 12.6 14 Oeste 32 Oeste 0 -- -- 60
2018-04-29 12:00:00 11.5 12 Oeste 33 Oeste 0 -- -- 65
2018-04-29 11:00:00 10.5 12 Oeste 29 Oeste 0 -- -- 76
2018-04-29 10:00:00 9 9 Oeste 20 Oeste 0 -- -- 85
2018-04-29 09:00:00 7.4 10 Oeste 21 Sudoeste 0 -- -- 92
2018-04-29 08:00:00 6 8 Sudoeste 19 Oeste 0 -- -- 95
2018-04-29 07:00:00 5.7 7 Sudoeste 16 Oeste 0 -- -- 96
2018-04-29 06:00:00 5.9 6 Sudoeste 14 Oeste 0 -- -- 94
2018-04-29 05:00:00 6.4 8 Oeste 19 Sudoeste 0 -- -- 94
2018-04-29 04:00:00 7 6 Sudoeste 17 Sudoeste 0 -- -- 95
2018-04-29 03:00:00 7 5 Oeste 13 Sudoeste 0 -- -- 94
2018-04-29 02:00:00 6.6 4 Oeste 19 Oeste 0 -- -- 94
2018-04-29 01:00:00 7.5 8 Oeste 19 Oeste 0 -- -- 94
2018-04-29 00:00:00 8.1 6 Sudoeste 15 Sudoeste 0 -- -- 96
2018-04-28 23:00:00 8.1 5 Sudoeste 17 Noroeste 1 -- -- 94
2018-04-28 22:00:00 9.2 10 Oeste 24 Oeste 0.2 -- -- 86
2018-04-28 21:00:00 10.3 6 Sudoeste 17 Oeste 1.2 -- -- 90
2018-04-28 20:00:00 11.2 7 Sudoeste 28 Sudoeste 0.2 -- -- 84
2018-04-28 19:00:00 14.1 10 Sudoeste 25 Sudoeste 0 -- -- 59
2018-04-28 18:00:00 15.5 11 Oeste 26 Oeste 0 -- -- 43
2018-04-28 17:00:00 15.9 10 Oeste 25 Sudoeste 0 -- -- 45
2018-04-28 16:00:00 16.3 12 Oeste 27 Sudoeste 0 -- -- 47
2018-04-28 15:00:00 15.4 10 Oeste 27 Oeste 0 -- -- 47
2018-04-28 14:00:00 15.3 7 Noroeste 25 Oeste 0 -- -- 53
2018-04-28 13:00:00 14.5 12 Oeste 24 Oeste 0 -- -- 51
2018-04-28 12:00:00 13.8 12 Noroeste 23 Noroeste 0 -- -- 51
2018-04-28 11:00:00 12.7 6 Norte 22 Oeste 0 -- -- 54
2018-04-28 10:00:00 11 10 Norte 21 Norte 0 -- -- 57
2018-04-28 09:00:00 8.8 6 Noroeste 13 Noroeste 0 -- -- 70
2018-04-28 08:00:00 8.8 8 Noroeste 21 Noroeste 0 -- -- 82
2018-04-28 07:00:00 9.7 8 Noroeste 17 Noroeste 0 -- -- 89
2018-04-28 06:00:00 10.6 6 Oeste 13 Oeste 0 -- -- 95
2018-04-28 05:00:00 11.2 4 Noroeste 13 Noroeste 0 -- -- 94
2018-04-28 04:00:00 11.6 3 Oeste 5 Oeste 0 -- -- 93
2018-04-28 03:00:00 12.3 3 Noroeste 10 Noroeste 0 -- -- 89
2018-04-28 02:00:00 13.5 6 Noroeste 13 Noroeste 0 -- -- 84
2018-04-28 01:00:00 14 5 Oeste 14 Noroeste 0 -- -- 81
2018-04-28 00:00:00 14.8 6 Noroeste 17 Oeste 0 -- -- 77